Cottonwd Hgts, Utah
Current Conditions -  °F | °C
As of 10:53 PM on Tuesday 27 Jan 2015 (Local Time) from KSLC Reporting Station
Broken Clouds Broken Clouds  
Wind Chill: 40°   Ceiling: 10000
Heat Index: 43°   Visibility: 9mi
Dew Point: 36°   Wind: 5mph
Humidity: 76%   Direction: 180°S
Pressure: 30.16"   Gusts: NA
Location:  40.615°N, 111.891°W
Report Text: KSLC 280553Z 18004KT 9SM SCT065 BKN100 06/02 A3016 RMK AO2 SLP208 T00610022 10117 20044 50008
Loading
Personal Weather Stations






























Interactive Weather Map New forecast layout! Learn more

10-Day Weather Forecast

Advertisements
Track Severe Weather on mobile